Time;durP1;ratioP1;P1;durP2;ratioP2;P2;SDS_P1;SDS_P2;PMS_P1;PMS_P2;Temp;Humidity;BMP_temperature;BMP_pressure;BME280_temperature;BME280_humidity;BME280_pressure;Samples;Min_cycle;Max_cycle;Signal;HPM_P1;HPM_P2
2022/06/24 00:00:43;;;;;;;0.10;0.10;;;;;;;20.13;89.56;94997.50;4340438;32;20197;-58
2022/06/24 00:03:19;;;;;;;0.20;0.20;;;;;;;20.23;90.55;95004.94;4313843;32;20185;-58
2022/06/24 00:05:46;;;;;;;0.67;0.50;;;;;;;20.10;89.69;95003.59;4302920;32;20256;-57
2022/06/24 00:08:21;;;;;;;0.10;0.10;;;;;;;19.83;90.67;95004.69;4326544;32;20192;-55
2022/06/24 00:10:46;;;;;;;0.40;0.40;;;;;;;19.97;90.65;95004.12;4342671;32;20189;-56
2022/06/24 00:13:12;;;;;;;0.50;0.50;;;;;;;19.71;90.95;95000.28;4320062;32;20205;-55
2022/06/24 00:15:39;;;;;;;0.17;0.10;;;;;;;19.58;91.67;95009.66;4314585;32;20246;-57
2022/06/24 00:18:16;;;;;;;0.20;0.20;;;;;;;19.62;92.17;95005.12;4321187;32;20220;-57
2022/06/24 00:20:46;;;;;;;0.23;0.23;;;;;;;19.71;91.36;95010.28;4325781;32;20213;-58
2022/06/24 00:23:20;;;;;;;1.70;0.50;;;;;;;19.81;91.21;95015.81;4315522;32;20200;-59
2022/06/24 00:25:47;;;;;;;0.60;0.60;;;;;;;19.81;90.22;95026.59;4336069;32;20193;-57
2022/06/24 00:28:13;;;;;;;0.20;0.20;;;;;;;19.97;91.00;95018.38;4307116;33;20216;-57
2022/06/24 00:30:45;;;;;;;0.20;0.10;;;;;;;19.99;89.75;95024.19;4302235;33;20232;-58
2022/06/24 00:33:23;;;;;;;0.00;0.00;;;;;;;20.00;90.23;95024.97;4302751;32;20247;-58
2022/06/24 00:35:52;;;;;;;0.83;0.57;;;;;;;19.98;90.00;95022.63;4328072;32;20201;-54
2022/06/24 00:38:35;;;;;;;0.00;0.00;;;;;;;20.12;88.87;95017.50;4313609;33;20194;-57
2022/06/24 00:41:11;;;;;;;0.00;0.00;;;;;;;19.87;89.93;95019.78;4300482;32;20392;-57
2022/06/24 00:44:01;;;;;;;0.17;0.17;;;;;;;19.75;90.67;95021.84;4325123;32;20207;-59
2022/06/24 00:46:39;;;;;;;0.60;0.40;;;;;;;19.88;90.19;95025.94;4315505;32;20260;-58
2022/06/24 00:49:09;;;;;;;0.70;0.20;;;;;;;19.88;90.64;95018.66;4335176;32;20211;-58
2022/06/24 00:51:37;;;;;;;3.77;0.43;;;;;;;19.84;89.96;95020.50;4307935;33;20193;-59
2022/06/24 00:54:32;;;;;;;0.20;0.20;;;;;;;19.82;89.89;95019.28;4331544;32;20217;-55
2022/06/24 00:57:02;;;;;;;0.10;0.10;;;;;;;19.68;89.39;95033.28;4324367;32;20344;-58
2022/06/24 00:59:33;;;;;;;0.10;0.10;;;;;;;19.82;89.74;95036.22;4303785;33;20273;-56
2022/06/24 01:02:03;;;;;;;0.20;0.20;;;;;;;19.64;89.74;95026.28;4316125;32;20284;-56
2022/06/24 01:04:38;;;;;;;0.17;0.17;;;;;;;19.69;89.36;95028.69;4309124;32;20334;-58
2022/06/24 01:07:07;;;;;;;0.17;0.17;;;;;;;19.76;88.23;95018.81;4314199;33;20194;-57
2022/06/24 01:09:32;;;;;;;0.13;0.13;;;;;;;19.74;87.52;95025.72;4350026;32;20231;-57
2022/06/24 01:11:59;;;;;;;0.43;0.43;;;;;;;19.77;87.59;95024.97;4335585;32;20261;-57
2022/06/24 01:14:25;;;;;;;3.40;0.67;;;;;;;19.83;87.51;95028.94;4361257;32;20196;-59
2022/06/24 01:16:52;;;;;;;0.10;0.10;;;;;;;19.55;88.32;95032.66;4343557;32;20233;-58
2022/06/24 01:19:18;;;;;;;0.13;0.13;;;;;;;19.54;88.41;95035.72;4331004;32;20224;-57
2022/06/24 01:21:58;;;;;;;0.43;0.43;;;;;;;19.60;88.21;95037.00;4332511;32;20207;-59
2022/06/24 01:24:25;;;;;;;0.50;0.50;;;;;;;19.61;89.50;95033.16;4358551;32;20271;-56
2022/06/24 01:26:58;;;;;;;0.07;0.07;;;;;;;19.45;89.14;95040.53;4361785;32;20193;-57
2022/06/24 01:29:26;;;;;;;0.07;0.07;;;;;;;19.58;89.35;95041.16;4362236;32;20199;-57
2022/06/24 01:31:54;;;;;;;0.20;0.20;;;;;;;19.59;88.38;95035.44;4336239;32;20193;-58
2022/06/24 01:34:32;;;;;;;0.77;0.60;;;;;;;19.44;89.10;95033.59;4308735;32;20193;-58
2022/06/24 01:36:59;;;;;;;1.80;0.40;;;;;;;19.45;88.98;95035.94;4338854;32;20217;-58
2022/06/24 01:39:25;;;;;;;0.10;0.10;;;;;;;19.59;89.74;95031.97;4348076;32;20196;-56
2022/06/24 01:41:54;;;;;;;0.20;0.20;;;;;;;19.81;89.45;95026.59;4354762;32;20201;-57
2022/06/24 01:44:24;;;;;;;0.20;0.20;;;;;;;19.89;88.61;95024.81;4343397;32;20203;-57
2022/06/24 01:46:52;;;;;;;0.17;0.10;;;;;;;20.07;88.89;95025.09;4335151;32;20251;-58
2022/06/24 01:49:20;;;;;;;0.07;0.07;;;;;;;20.02;87.37;95034.25;4333326;32;20271;-58
2022/06/24 01:51:59;;;;;;;0.10;0.10;;;;;;;19.84;88.17;95028.56;4292179;32;20208;-57
2022/06/24 01:54:26;;;;;;;0.13;0.13;;;;;;;20.01;89.54;95040.00;4280632;33;20201;-59
2022/06/24 01:56:54;;;;;;;0.10;0.10;;;;;;;19.82;88.18;95036.22;4326751;32;20201;-57
2022/06/24 01:59:20;;;;;;;0.40;0.40;;;;;;;19.78;90.20;95029.22;4315837;32;20212;-58
2022/06/24 02:01:47;;;;;;;7.20;0.67;;;;;;;19.81;88.26;95031.19;4338966;32;20193;-58
2022/06/24 02:04:13;;;;;;;0.20;0.20;;;;;;;19.92;88.80;95026.00;4329703;32;20196;-57
2022/06/24 02:06:42;;;;;;;0.50;0.47;;;;;;;19.94;88.36;95024.50;4340195;32;20201;-58
2022/06/24 02:09:08;;;;;;;0.50;0.50;;;;;;;20.03;88.84;95024.25;4353970;32;20189;-55
2022/06/24 02:14:23;;;;;;;0.83;0.53;;;;;;;20.11;87.59;95017.84;4356759;32;20214;-56
2022/06/24 02:16:51;;;;;;;0.20;0.20;;;;;;;20.13;88.59;95020.97;4339718;32;20212;-57
2022/06/24 02:19:20;;;;;;;0.20;0.20;;;;;;;20.17;88.21;95024.47;4297480;32;20241;-57
2022/06/24 02:21:48;;;;;;;0.10;0.10;;;;;;;20.12;87.60;95022.09;4319659;32;20197;-56
2022/06/24 02:24:15;;;;;;;0.00;0.00;;;;;;;20.27;87.63;95018.47;4334480;32;20256;-56
2022/06/24 02:26:43;;;;;;;0.30;0.20;;;;;;;20.30;87.03;95019.66;4322239;32;20198;-55
2022/06/24 02:29:11;;;;;;;0.00;0.00;;;;;;;20.13;86.16;95026.34;4332423;32;20197;-66
2022/06/24 02:31:39;;;;;;;0.73;0.57;;;;;;;19.84;87.44;95025.09;4330221;32;20257;-58
2022/06/24 02:34:06;;;;;;;0.30;0.30;;;;;;;19.74;88.77;95025.72;4321643;32;20189;-58
2022/06/24 02:36:31;;;;;;;0.00;0.00;;;;;;;19.74;88.17;95021.09;4306925;32;20217;-56
2022/06/24 02:38:58;;;;;;;1.23;0.40;;;;;;;19.83;87.86;95024.31;4337591;32;20239;-55
2022/06/24 02:41:24;;;;;;;0.20;0.20;;;;;;;19.74;87.67;95015.72;4348971;32;20274;-56
2022/06/24 02:43:51;;;;;;;5.20;0.70;;;;;;;19.93;88.56;95022.19;4329119;32;20209;-55
2022/06/24 02:46:18;;;;;;;0.47;0.47;;;;;;;19.91;86.64;95022.53;4311128;32;20193;-57
2022/06/24 02:48:46;;;;;;;0.20;0.00;;;;;;;20.09;88.25;95020.91;4328109;32;20268;-56
2022/06/24 02:51:15;;;;;;;0.10;0.10;;;;;;;20.09;87.51;95020.91;4318660;32;20202;-55
2022/06/24 02:53:46;;;;;;;0.20;0.20;;;;;;;20.00;85.53;95014.97;4340840;32;20234;-58
2022/06/24 02:56:14;;;;;;;0.23;0.23;;;;;;;20.00;85.72;95008.81;4326331;32;20205;-58
2022/06/24 02:58:44;;;;;;;0.17;0.10;;;;;;;19.89;86.13;95012.12;4327596;32;20197;-59
2022/06/24 03:01:10;;;;;;;0.00;0.00;;;;;;;19.82;86.28;95006.59;4353204;32;20212;-65
2022/06/24 03:03:38;;;;;;;2.13;0.63;;;;;;;19.92;86.75;95004.47;4326345;32;20233;-54
2022/06/24 03:06:06;;;;;;;0.30;0.30;;;;;;;20.04;87.49;95009.66;4336129;32;20252;-55
2022/06/24 03:08:34;;;;;;;0.10;0.10;;;;;;;20.17;86.96;94997.53;4328615;32;20207;-56
2022/06/24 03:11:00;;;;;;;6.23;0.77;;;;;;;20.01;85.50;95007.66;4354144;32;21257;-56
2022/06/24 03:13:28;;;;;;;1.20;0.40;;;;;;;20.09;86.80;95006.66;4300857;33;20197;-57
2022/06/24 03:15:58;;;;;;;0.07;0.07;;;;;;;19.82;86.33;95006.59;4311975;32;20252;-56
2022/06/24 03:18:24;;;;;;;0.37;0.37;;;;;;;19.87;85.82;95011.69;4348798;32;20208;-57
2022/06/24 03:20:52;;;;;;;0.43;0.40;;;;;;;19.89;86.44;95011.34;4350424;32;20236;-58
2022/06/24 03:23:19;;;;;;;0.07;0.07;;;;;;;19.96;86.76;95005.28;4319278;32;20251;-59
2022/06/24 03:25:47;;;;;;;0.17;0.17;;;;;;;19.89;85.83;95011.34;4320034;32;20197;-56
2022/06/24 03:28:15;;;;;;;0.33;0.33;;;;;;;20.03;86.66;95008.87;4331227;32;20228;-56
2022/06/24 03:30:42;;;;;;;0.37;0.37;;;;;;;19.95;85.52;94999.13;4313635;32;20207;-57
2022/06/24 03:33:08;;;;;;;0.37;0.37;;;;;;;20.04;86.12;95010.44;4323164;32;20189;-56
2022/06/24 03:35:35;;;;;;;0.30;0.30;;;;;;;20.03;84.66;95010.78;4290650;32;20335;-56
2022/06/24 03:38:03;;;;;;;0.20;0.20;;;;;;;20.07;83.77;95007.00;4326939;32;20193;-56
2022/06/24 03:40:28;;;;;;;0.20;0.20;;;;;;;20.05;84.43;95000.44;4331308;32;20274;-57
2022/06/24 03:42:55;;;;;;;0.33;0.33;;;;;;;20.11;85.38;94993.59;4350554;32;20205;-56
2022/06/24 03:45:22;;;;;;;0.03;0.03;;;;;;;20.13;84.52;94999.41;4341934;32;20268;-55
2022/06/24 03:47:49;;;;;;;0.20;0.20;;;;;;;20.16;84.61;94994.06;4358094;32;20224;-56
2022/06/24 03:50:16;;;;;;;0.23;0.10;;;;;;;20.11;84.17;94993.59;4345201;32;20245;-56
2022/06/24 03:52:46;;;;;;;0.30;0.30;;;;;;;20.15;85.68;94997.12;4335256;32;20194;-57
2022/06/24 03:55:11;;;;;;;0.10;0.10;;;;;;;20.08;84.12;94994.31;4290478;32;20194;-54
2022/06/24 03:57:39;;;;;;;0.10;0.10;;;;;;;20.00;83.96;94995.34;4331636;32;20207;-55
2022/06/24 04:00:08;;;;;;;0.33;0.33;;;;;;;19.99;84.59;94997.25;4338347;32;20255;-56
2022/06/24 04:02:59;;;;;;;0.30;0.30;;;;;;;20.14;85.38;94987.50;4328807;32;20340;-56
2022/06/24 04:05:26;;;;;;;2.43;0.43;;;;;;;20.35;84.91;94990.50;4338468;32;20204;-54
2022/06/24 04:07:54;;;;;;;0.70;0.47;;;;;;;20.33;84.83;94986.63;4343383;32;20193;-54
2022/06/24 04:10:19;;;;;;;0.60;0.30;;;;;;;20.27;84.14;94991.53;4341754;32;20202;-56
2022/06/24 04:12:46;;;;;;;0.13;0.13;;;;;;;20.27;84.89;94994.22;4328760;32;20193;-56
2022/06/24 04:15:13;;;;;;;0.67;0.37;;;;;;;20.25;86.33;94991.91;4325999;32;20204;-56
2022/06/24 04:17:39;;;;;;;0.30;0.30;;;;;;;20.19;86.04;94989.88;4309297;32;20200;-54
2022/06/24 04:20:09;;;;;;;1.43;0.67;;;;;;;20.19;85.17;94995.25;4334171;32;20194;-54
2022/06/24 04:22:37;;;;;;;0.10;0.10;;;;;;;20.36;85.74;94996.69;4322806;32;20297;-53
2022/06/24 04:25:03;;;;;;;0.63;0.43;;;;;;;20.33;85.41;95008.94;4322447;32;20197;-55
2022/06/24 04:27:30;;;;;;;0.10;0.10;;;;;;;20.37;84.73;95009.03;4324771;32;20210;-55
2022/06/24 04:30:01;;;;;;;0.13;0.13;;;;;;;20.21;84.36;95001.06;4320067;32;20204;-56
2022/06/24 04:32:27;;;;;;;0.23;0.23;;;;;;;20.15;85.71;95005.22;4334499;32;20216;-57
2022/06/24 04:34:54;;;;;;;0.30;0.30;;;;;;;20.16;86.28;95006.78;4330564;32;20181;-56
2022/06/24 04:37:21;;;;;;;0.67;0.53;;;;;;;20.30;86.11;95004.28;4348910;32;20197;-57
2022/06/24 04:39:47;;;;;;;0.63;0.33;;;;;;;20.13;84.89;95015.56;4314720;32;20214;-56
2022/06/24 04:42:12;;;;;;;0.20;0.20;;;;;;;20.23;84.95;95023.03;4331276;32;20193;-57
2022/06/24 04:44:42;;;;;;;0.40;0.40;;;;;;;20.22;86.00;95011.47;4340735;32;20249;-56
2022/06/24 04:47:08;;;;;;;0.40;0.40;;;;;;;20.21;84.13;95018.00;4311882;32;20207;-53
2022/06/24 04:49:34;;;;;;;1.00;0.87;;;;;;;20.25;85.40;95015.38;4345197;32;20193;-56
2022/06/24 04:52:02;;;;;;;0.60;0.40;;;;;;;20.37;85.46;95012.47;4324399;32;20193;-56
2022/06/24 04:54:31;;;;;;;0.27;0.17;;;;;;;20.34;84.55;95010.50;4312063;32;20205;-56
2022/06/24 04:56:57;;;;;;;5.10;0.70;;;;;;;20.37;84.45;95020.56;4327331;32;20251;-56
2022/06/24 04:59:24;;;;;;;0.20;0.20;;;;;;;20.38;85.11;95022.13;4334233;32;20186;-58
2022/06/24 05:01:50;;;;;;;2.87;0.33;;;;;;;20.57;84.44;95024.72;4331518;32;20185;-57
2022/06/24 05:04:16;;;;;;;2.10;0.83;;;;;;;20.53;83.61;95029.28;4326096;32;20215;-56
2022/06/24 05:06:43;;;;;;;2.73;0.90;;;;;;;20.53;83.46;95023.91;4332634;32;20216;-57
2022/06/24 05:09:09;;;;;;;6.60;0.50;;;;;;;20.44;85.50;95020.69;4342729;32;20185;-56
2022/06/24 05:11:37;;;;;;;0.60;0.33;;;;;;;20.57;85.26;95018.56;4301889;33;20220;-57
2022/06/24 05:14:05;;;;;;;0.50;0.50;;;;;;;20.53;84.52;95033.91;4249404;33;20266;-57
2022/06/24 05:16:31;;;;;;;0.53;0.47;;;;;;;20.57;84.94;95032.81;4218518;32;20277;-56
2022/06/24 05:18:56;;;;;;;1.13;0.70;;;;;;;20.65;84.96;95027.50;4261613;33;20252;-55
2022/06/24 05:21:23;;;;;;;0.40;0.40;;;;;;;20.70;85.14;95027.97;4327126;32;20244;-57
2022/06/24 05:23:49;;;;;;;0.57;0.57;;;;;;;20.69;84.50;95028.34;4333122;32;20223;-56
2022/06/24 05:26:16;;;;;;;0.00;0.00;;;;;;;20.69;84.85;95031.03;4298219;32;20201;-56
2022/06/24 05:28:42;;;;;;;1.23;0.80;;;;;;;20.75;83.93;95035.75;4320212;33;20186;-57
2022/06/24 05:31:09;;;;;;;1.60;0.50;;;;;;;20.68;82.57;95034.88;4328104;32;20193;-57
2022/06/24 05:33:35;;;;;;;1.57;0.80;;;;;;;20.33;83.79;95035.12;4325538;33;20178;-54
2022/06/24 05:36:09;;;;;;;0.97;0.73;;;;;;;20.48;84.54;95028.81;4321833;32;20261;-57
2022/06/24 05:38:36;;;;;;;1.20;0.60;;;;;;;20.53;83.44;95023.91;4329784;32;20258;-57
2022/06/24 05:41:06;;;;;;;0.37;0.37;;;;;;;20.58;84.26;95023.56;4327258;32;20276;-57
2022/06/24 05:43:33;;;;;;;0.77;0.77;;;;;;;20.36;82.38;95018.22;4328071;32;20200;-57
2022/06/24 05:46:01;;;;;;;0.50;0.37;;;;;;;20.31;82.75;95018.53;4319477;32;20225;-57
2022/06/24 05:48:30;;;;;;;13.60;1.33;;;;;;;20.43;83.65;95021.81;4332227;32;20216;-57
2022/06/24 05:50:57;;;;;;;1.90;0.80;;;;;;;20.27;83.71;95018.47;4335420;32;20254;-57
2022/06/24 05:56:09;;;;;;;0.43;0.43;;;;;;;19.94;82.92;95018.34;4331657;32;20508;-57
2022/06/24 05:58:37;;;;;;;0.57;0.57;;;;;;;20.13;82.83;95012.88;4290190;32;20221;-57
2022/06/24 06:01:11;;;;;;;0.13;0.13;;;;;;;20.26;83.17;95008.84;4298928;32;20348;-58
2022/06/24 06:03:39;;;;;;;0.03;0.03;;;;;;;20.29;82.26;95007.34;4302275;32;20275;-57
2022/06/24 06:06:06;;;;;;;1.30;0.83;;;;;;;20.44;82.94;95003.72;4321008;32;20189;-57
2022/06/24 06:08:33;;;;;;;0.40;0.40;;;;;;;20.66;82.26;95010.97;4331135;32;20296;-56
2022/06/24 06:11:00;;;;;;;0.60;0.60;;;;;;;20.78;81.12;95012.69;4330605;32;20215;-57
2022/06/24 06:13:26;;;;;;;0.73;0.50;;;;;;;20.78;80.97;95010.75;4320458;32;20186;-57
2022/06/24 06:15:53;;;;;;;0.00;0.00;;;;;;;20.95;80.53;95004.03;4319478;32;20220;-57
2022/06/24 06:18:19;;;;;;;0.30;0.30;;;;;;;20.81;79.65;95003.84;4317217;32;20271;-55
2022/06/24 06:20:46;;;;;;;0.67;0.37;;;;;;;20.55;79.85;95010.84;4313166;32;20208;-57
2022/06/24 06:23:12;;;;;;;0.77;0.50;;;;;;;20.71;79.09;95007.19;4334164;32;20204;-58
2022/06/24 06:25:38;;;;;;;0.30;0.30;;;;;;;20.91;78.54;95008.59;4331145;32;20193;-58
2022/06/24 06:28:05;;;;;;;5.13;1.03;;;;;;;21.04;79.24;95009.91;4339751;32;20196;-58
2022/06/24 06:30:34;;;;;;;0.10;0.10;;;;;;;21.14;78.90;95008.50;4338097;32;20201;-59
2022/06/24 06:33:01;;;;;;;0.30;0.30;;;;;;;21.19;78.18;95010.88;4325278;32;20270;-58
2022/06/24 06:35:28;;;;;;;3.13;0.60;;;;;;;21.17;78.34;95008.53;4329755;32;20207;-58
2022/06/24 06:37:59;;;;;;;0.70;0.53;;;;;;;20.72;78.67;95012.22;4321421;32;20186;-59
2022/06/24 06:40:24;;;;;;;0.43;0.43;;;;;;;21.00;79.83;95019.88;4321331;32;20201;-58
2022/06/24 06:42:55;;;;;;;0.30;0.30;;;;;;;21.15;78.94;95015.44;4333026;32;20208;-57
2022/06/24 06:45:22;;;;;;;2.03;0.70;;;;;;;20.99;78.80;95023.72;4321224;32;20240;-58
2022/06/24 06:47:49;;;;;;;0.30;0.30;;;;;;;21.15;79.14;95008.13;4292257;32;20197;-58
2022/06/24 06:50:17;;;;;;;0.30;0.30;;;;;;;20.96;78.68;95015.59;4312321;32;20240;-58
2022/06/24 06:52:42;;;;;;;0.67;0.23;;;;;;;20.94;79.21;95021.34;4322963;32;20239;-59
2022/06/24 06:55:09;;;;;;;1.03;0.60;;;;;;;21.14;78.67;95019.28;4319164;32;20202;-58
2022/06/24 06:57:34;;;;;;;0.10;0.10;;;;;;;20.80;77.48;95010.38;4299383;32;20292;-59
2022/06/24 07:00:31;;;;;;;0.20;0.20;;;;;;;20.70;78.34;95011.81;4338442;32;20906;-58
2022/06/24 07:02:57;;;;;;;0.20;0.20;;;;;;;20.69;78.78;95006.78;4319787;32;20233;-58
2022/06/24 07:05:24;;;;;;;0.50;0.30;;;;;;;20.59;79.71;94997.38;4324006;32;20198;-59
2022/06/24 07:07:50;;;;;;;2.93;0.70;;;;;;;20.79;79.82;94995.34;4326297;32;20257;-58
2022/06/24 07:10:17;;;;;;;0.27;0.27;;;;;;;21.19;78.93;94989.28;4285829;32;20236;-58
2022/06/24 07:12:43;;;;;;;0.10;0.10;;;;;;;21.40;78.59;94984.13;4321819;32;20194;-58
2022/06/24 07:15:14;;;;;;;0.40;0.40;;;;;;;21.80;78.17;94975.25;4310931;32;20213;-58
2022/06/24 07:17:41;;;;;;;0.10;0.10;;;;;;;22.05;76.99;94974.66;4324602;32;20194;-63
2022/06/24 07:20:08;;;;;;;0.43;0.30;;;;;;;22.08;77.43;94976.63;4324731;32;20203;-58
2022/06/24 07:22:34;;;;;;;0.33;0.33;;;;;;;22.25;76.42;94967.88;4302005;32;20208;-58
2022/06/24 07:25:13;;;;;;;0.40;0.20;;;;;;;22.42;75.67;94963.75;4338417;32;20273;-58
2022/06/24 07:27:39;;;;;;;0.20;0.20;;;;;;;22.50;74.75;94971.50;4305876;32;20259;-58
2022/06/24 07:30:30;;;;;;;0.10;0.10;;;;;;;22.29;76.20;94977.56;4339551;32;20198;-58
2022/06/24 07:32:57;;;;;;;0.40;0.40;;;;;;;22.22;76.01;94979.44;4330528;32;20198;-58
2022/06/24 07:35:24;;;;;;;2.10;0.83;;;;;;;22.26;75.89;94974.81;4334467;32;20199;-58
2022/06/24 07:37:50;;;;;;;0.20;0.20;;;;;;;22.11;76.19;94973.97;4315135;32;20197;-58
2022/06/24 07:40:18;;;;;;;0.20;0.20;;;;;;;22.17;76.15;94977.87;4329439;32;20201;-58
2022/06/24 07:42:45;;;;;;;0.20;0.20;;;;;;;22.20;75.89;94979.06;4330975;32;20260;-58
2022/06/24 07:45:13;;;;;;;0.37;0.37;;;;;;;22.29;76.21;94976.78;4324289;32;20253;-58
2022/06/24 07:47:41;;;;;;;0.30;0.30;;;;;;;22.02;77.51;94978.16;4313710;32;20197;-58
2022/06/24 07:50:07;;;;;;;0.33;0.33;;;;;;;22.19;77.42;94980.19;4324513;32;20207;-58
2022/06/24 07:52:40;;;;;;;0.20;0.20;;;;;;;22.26;77.38;94980.22;4341422;32;20198;-58
2022/06/24 07:57:55;;;;;;;0.43;0.43;;;;;;;22.25;77.26;94963.22;4329748;32;20208;-58
2022/06/24 08:00:22;;;;;;;0.30;0.30;;;;;;;22.08;77.59;94973.94;4324475;32;20193;-57
2022/06/24 08:02:49;;;;;;;0.40;0.40;;;;;;;22.05;77.46;94971.97;4323203;32;20319;-58
2022/06/24 08:05:17;;;;;;;0.80;0.40;;;;;;;22.09;76.94;94961.97;4291404;33;20223;-58
2022/06/24 08:07:44;;;;;;;0.47;0.47;;;;;;;22.18;76.42;94965.13;4329405;32;20186;-57
2022/06/24 08:10:13;;;;;;;0.73;0.73;;;;;;;22.01;77.13;94968.50;4310571;32;20235;-58
2022/06/24 08:12:39;;;;;;;0.87;0.63;;;;;;;22.07;76.85;94975.06;4302637;32;20190;-58
2022/06/24 08:15:07;;;;;;;0.20;0.20;;;;;;;22.15;77.56;94974.00;4319597;32;20215;-58
2022/06/24 08:17:33;;;;;;;0.50;0.50;;;;;;;22.00;78.52;94961.50;4331077;32;20197;-58
2022/06/24 08:20:00;;;;;;;12.37;0.70;;;;;;;21.93;77.96;94962.22;4327587;32;20264;-58
2022/06/24 08:22:26;;;;;;;0.57;0.57;;;;;;;21.91;78.15;94956.41;4252147;33;20191;-58
2022/06/24 08:24:52;;;;;;;1.23;0.80;;;;;;;21.93;78.82;94944.09;4315686;32;20215;-58
2022/06/24 08:27:19;;;;;;;0.40;0.40;;;;;;;22.01;78.25;94954.97;4313452;32;20202;-58
2022/06/24 08:29:48;;;;;;;0.73;0.73;;;;;;;21.86;79.15;94959.44;4307536;32;20197;-58
2022/06/24 08:32:14;;;;;;;0.20;0.20;;;;;;;21.92;79.87;94958.75;4320391;32;20204;-64
2022/06/24 08:34:40;;;;;;;0.27;0.27;;;;;;;21.92;76.18;94950.63;4347820;32;20201;-58
2022/06/24 08:37:10;;;;;;;0.20;0.20;;;;;;;21.99;75.80;94949.16;4328610;32;20194;-57
2022/06/24 08:39:36;;;;;;;0.20;0.20;;;;;;;22.05;75.58;94947.66;4327975;32;20182;-58
2022/06/24 08:42:05;;;;;;;0.60;0.60;;;;;;;22.01;76.43;94944.19;4314233;32;20193;-58
2022/06/24 08:44:32;;;;;;;0.47;0.47;;;;;;;22.13;75.99;94936.53;4335647;32;20349;-58
2022/06/24 08:46:58;;;;;;;1.03;0.83;;;;;;;22.07;76.98;94935.31;4335194;32;20189;-58
2022/06/24 08:49:29;;;;;;;0.47;0.47;;;;;;;22.04;76.43;94929.88;4285414;32;20198;-58
2022/06/24 08:52:04;;;;;;;0.70;0.67;;;;;;;22.23;76.25;94937.75;4311842;32;20194;-56
2022/06/24 08:54:42;;;;;;;1.17;0.50;;;;;;;22.35;75.42;94940.13;4341715;32;20260;-58
2022/06/24 08:57:12;;;;;;;0.40;0.40;;;;;;;22.43;75.37;94922.81;4340393;32;20232;-58
2022/06/24 08:59:39;;;;;;;0.53;0.53;;;;;;;22.60;74.55;94930.22;4328841;32;20209;-58
2022/06/24 09:02:07;;;;;;;0.83;0.83;;;;;;;22.76;74.75;94929.91;4334189;32;20202;-58
2022/06/24 09:04:36;;;;;;;0.47;0.47;;;;;;;22.86;73.26;94937.31;4330476;32;20295;-58
2022/06/24 09:07:06;;;;;;;0.30;0.30;;;;;;;22.72;73.01;94934.53;4333071;32;20193;-58
2022/06/24 09:09:32;;;;;;;0.50;0.50;;;;;;;22.83;73.18;94926.50;4326304;32;20193;-57
2022/06/24 09:12:01;;;;;;;0.13;0.13;;;;;;;22.79;73.74;94929.19;4334465;32;20208;-58
2022/06/24 09:14:48;;;;;;;1.27;1.17;;;;;;;22.65;73.81;94934.50;4302596;32;20226;-58
2022/06/24 09:17:17;;;;;;;12.43;0.83;;;;;;;22.85;71.91;94918.78;4264748;32;20316;-58
2022/06/24 09:19:44;;;;;;;0.30;0.30;;;;;;;22.76;72.25;94915.59;4323804;32;20197;-58
2022/06/24 09:22:11;;;;;;;0.70;0.70;;;;;;;22.73;72.88;94922.53;4339555;32;20212;-58
2022/06/24 09:24:50;;;;;;;1.77;0.73;;;;;;;22.67;72.46;94918.66;4325337;32;20224;-58
2022/06/24 09:27:17;;;;;;;0.80;0.80;;;;;;;22.72;72.50;94912.88;4314568;32;20194;-58
2022/06/24 09:29:49;;;;;;;0.40;0.40;;;;;;;22.98;70.80;94914.56;4316770;32;20189;-58
2022/06/24 09:32:19;;;;;;;1.20;1.20;;;;;;;23.17;71.00;94908.78;4288114;32;20209;-57
2022/06/24 09:35:06;;;;;;;0.50;0.50;;;;;;;23.19;69.95;94905.72;4341224;32;20190;-58
2022/06/24 09:37:51;;;;;;;0.63;0.63;;;;;;;23.24;70.16;94898.00;4302308;32;20278;-58
2022/06/24 09:40:34;;;;;;;0.60;0.60;;;;;;;23.38;68.57;94891.03;4305880;32;20292;-58
2022/06/24 09:43:10;;;;;;;0.67;0.67;;;;;;;23.30;68.27;94898.38;4331622;32;20225;-58
2022/06/24 09:45:52;;;;;;;0.57;0.30;;;;;;;23.25;67.84;94899.53;4330806;32;20189;-58
2022/06/24 09:48:38;;;;;;;0.33;0.33;;;;;;;23.28;67.40;94882.50;4314692;32;20212;-58
2022/06/24 09:51:08;;;;;;;0.40;0.40;;;;;;;23.35;66.40;94883.69;4319702;32;20488;-58
2022/06/24 09:53:37;;;;;;;0.87;0.87;;;;;;;23.43;65.79;94879.81;4306268;32;20198;-58
2022/06/24 09:56:10;;;;;;;0.63;0.63;;;;;;;23.42;65.67;94870.16;4326105;32;20248;-58
2022/06/24 09:58:43;;;;;;;0.63;0.63;;;;;;;23.27;66.20;94869.38;4349582;32;20264;-58
2022/06/24 10:01:11;;;;;;;0.90;0.90;;;;;;;23.33;66.07;94867.03;4352435;32;20211;-59
2022/06/24 10:03:39;;;;;;;0.53;0.53;;;;;;;23.41;63.26;94865.91;4317790;32;20203;-58
2022/06/24 10:06:11;;;;;;;6.83;1.03;;;;;;;23.43;60.09;94853.53;4339296;32;20201;-58
2022/06/24 10:08:40;;;;;;;2.40;0.47;;;;;;;23.43;60.34;94847.34;4298180;32;20277;-58
2022/06/24 10:11:14;;;;;;;6.80;0.77;;;;;;;23.42;60.58;94851.19;4328830;32;20243;-58
2022/06/24 10:13:54;;;;;;;0.40;0.40;;;;;;;23.54;59.86;94845.41;4347292;32;20221;-58
2022/06/24 10:16:21;;;;;;;1.10;0.60;;;;;;;23.76;59.57;94852.34;4346399;32;20192;-58
2022/06/24 10:18:51;;;;;;;0.33;0.33;;;;;;;23.88;58.00;94848.50;4350743;32;20193;-58
2022/06/24 10:21:19;;;;;;;0.13;0.13;;;;;;;23.87;55.13;94842.28;4340733;32;20181;-58
2022/06/24 10:23:52;;;;;;;0.40;0.40;;;;;;;23.93;56.17;94832.59;4351850;32;20181;-58
2022/06/24 10:26:34;;;;;;;0.20;0.20;;;;;;;24.04;56.08;94829.09;4326726;32;20288;-58
2022/06/24 10:29:04;;;;;;;1.43;1.23;;;;;;;24.08;56.23;94825.22;4333440;32;20274;-58
2022/06/24 10:31:56;;;;;;;0.67;0.67;;;;;;;24.01;54.82;94819.03;4326556;32;20232;-58
2022/06/24 10:34:41;;;;;;;0.50;0.50;;;;;;;24.11;56.57;94815.53;4290374;32;20193;-59
2022/06/24 10:37:24;;;;;;;0.63;0.63;;;;;;;24.27;54.10;94811.22;4293947;33;20194;-59
2022/06/24 10:39:58;;;;;;;0.70;0.70;;;;;;;24.44;53.04;94814.25;4309491;32;20228;-58
2022/06/24 10:42:30;;;;;;;1.20;1.10;;;;;;;24.35;53.24;94811.19;4343966;32;20203;-58
2022/06/24 10:45:05;;;;;;;1.03;0.60;;;;;;;24.39;55.50;94804.59;4317536;32;20212;-58
2022/06/24 10:47:40;;;;;;;0.60;0.60;;;;;;;24.52;54.80;94800.28;4306621;32;20224;-58
2022/06/24 10:50:33;;;;;;;0.50;0.50;;;;;;;24.55;53.76;94796.75;4324392;32;20197;-58
2022/06/24 10:53:02;;;;;;;14.43;0.73;;;;;;;24.62;53.10;94794.00;4314685;32;20303;-58
2022/06/24 10:55:36;;;;;;;0.37;0.33;;;;;;;24.75;51.71;94797.03;4325084;32;20307;-58
2022/06/24 10:58:11;;;;;;;0.93;0.93;;;;;;;24.76;50.72;94798.56;4340261;32;20272;-58
2022/06/24 11:00:52;;;;;;;0.37;0.37;;;;;;;24.77;50.74;94804.78;4299155;32;20206;-58
2022/06/24 11:03:30;;;;;;;0.80;0.80;;;;;;;24.84;50.62;94808.22;4305680;32;20211;-58
2022/06/24 11:05:57;;;;;;;1.20;1.13;;;;;;;24.78;50.06;94807.09;4328892;32;20197;-58
2022/06/24 11:08:25;;;;;;;0.53;0.53;;;;;;;24.60;52.20;94799.06;4330569;32;20194;-58
2022/06/24 11:10:59;;;;;;;0.57;0.57;;;;;;;24.55;53.09;94799.47;4336372;32;20211;-58
2022/06/24 11:13:27;;;;;;;10.07;5.10;;;;;;;24.51;51.95;94792.53;4354029;32;20197;-58
2022/06/24 11:15:58;;;;;;;0.50;0.50;;;;;;;24.52;51.38;94789.44;4308211;32;20206;-58
2022/06/24 11:18:30;;;;;;;1.67;1.33;;;;;;;24.62;51.28;94780.44;4319583;32;20201;-59
2022/06/24 11:21:17;;;;;;;1.57;1.47;;;;;;;24.77;51.14;94777.63;4344728;32;20217;-59
2022/06/24 11:23:45;;;;;;;2.30;2.20;;;;;;;24.69;50.11;94771.50;4313269;32;20216;-58
2022/06/24 11:26:18;;;;;;;4.10;3.77;;;;;;;24.84;50.26;94772.16;4315304;32;20209;-58
2022/06/24 11:28:53;;;;;;;4.60;4.13;;;;;;;24.84;50.65;94780.31;4315371;32;20198;-58
2022/06/24 11:31:33;;;;;;;0.50;0.50;;;;;;;24.97;49.89;94767.84;4352700;32;20224;-58
2022/06/24 11:34:14;;;;;;;1.53;0.60;;;;;;;24.92;49.74;94770.97;4336289;32;20346;-58
2022/06/24 11:36:43;;;;;;;1.60;0.73;;;;;;;24.97;50.52;94776.75;4319862;32;20208;-58
2022/06/24 11:39:10;;;;;;;3.37;0.43;;;;;;;25.04;51.44;94765.06;4345235;32;20224;-58
2022/06/24 11:41:39;;;;;;;1.40;1.30;;;;;;;25.07;52.82;94769.72;4323551;32;20193;-58
2022/06/24 11:44:07;;;;;;;0.73;0.50;;;;;;;24.99;54.18;94766.25;4241206;32;20302;-58
2022/06/24 11:46:32;;;;;;;1.30;0.77;;;;;;;24.93;54.19;94756.22;4294652;32;20271;-58
2022/06/24 11:49:14;;;;;;;1.37;1.27;;;;;;;24.99;54.31;94746.50;4274200;32;20185;-59
2022/06/24 11:51:45;;;;;;;1.20;1.10;;;;;;;25.09;54.40;94742.94;4239990;32;20218;-59
2022/06/24 11:54:13;;;;;;;0.70;0.70;;;;;;;25.18;53.89;94737.78;4312679;32;20212;-58